KB4ID Weather Reports


Display with metric or nautical units.
time (UTC)temp
F
wind
direction
speed
MPH
gust
MPH
rain 1hr
in
rain 24hr
in
rain mn
in
humidity
%
barometer
mb
20210125133405 38 138 0.0 0.0 0.00 0.07 0.07 98 1017.9
20210125132405 38 138 0.0 0.0 0.00 0.07 0.07 98 1018.2
20210125130406 37 138 0.0 0.0 0.00 0.07 0.07 98 1018.2
20210125125406 37 137 0.0 0.0 0.00 0.07 0.07 98 1018.2
20210125123407 37 137 0.0 0.0 0.00 0.07 0.07 97 1018.2
20210125122409 37 138 0.0 0.0 0.00 0.07 0.07 97 1017.9
20210125121406 37 138 0.0 0.0 0.00 0.07 0.07 97 1017.9
20210125120409 37 138 0.0 0.0 0.00 0.07 0.07 97 1018.2
20210125114406 37 138 0.0 0.0 0.00 0.07 0.07 97 1017.6
20210125105409 37 137 0.0 0.0 0.00 0.07 0.07 96 1017.6
20210125104404 37 137 0.0 0.0 0.00 0.07 0.07 96 1017.6
20210125103406 37 138 0.0 0.0 0.00 0.07 0.07 96 1017.9
20210125100404 37 138 0.0 0.0 0.02 0.07 0.07 95 1018.2
20210125095404 37 138 0.0 0.0 0.02 0.07 0.07 95 1018.2
20210125094406 37 137 0.0 0.0 0.02 0.07 0.07 95 1018.6
20210125093406 37 138 0.0 0.0 0.03 0.07 0.07 95 1018.6
20210125092410 37 137 0.0 0.0 0.02 0.06 0.06 95 1018.6
20210125091408 37 138 0.0 0.0 0.02 0.06 0.06 95 1018.9
20210125090405 37 138 0.0 0.0 0.02 0.05 0.05 95 1018.9
20210125085408 37 138 0.0 0.0 0.02 0.05 0.05 94 1019.2
20210125083406 37 138 0.0 0.0 0.02 0.04 0.04 92 1018.9
20210125081406 37 138 0.0 0.0 0.04 0.04 0.04 91 1019.6
20210125080405 38 138 0.0 0.0 0.03 0.03 0.03 92 1019.6
20210125075409 38 137 0.0 0.0 0.03 0.03 0.03 90 1019.6
20210125073406 38 137 0.0 0.0 0.02 0.02 0.02 89 1019.9
20210125072408 38 138 0.0 0.0 0.01 0.01 0.01 87 1019.6
20210125065409 39 137 0.0 0.0 0.00 0.00 0.00 85 1019.6
20210125064405 39 138 0.0 0.0 0.00 0.00 0.00 84 1019.6
20210125063405 39 138 0.0 0.0 0.00 0.00 0.00 81 1019.9
20210125062406 40 138 0.0 0.0 0.00 0.00 0.00 78 1019.9
20210125061409 40 138 0.0 0.0 0.00 0.00 0.00 76 1019.6
20210125055407 40 137 0.0 0.0 0.00 0.00 0.00 68 1019.6
20210125054406 40 137 0.0 0.0 0.00 0.00 0.00 69 1019.6
20210125053408 40 138 0.0 0.0 0.00 0.00 0.00 71 1019.9
20210125051404 40 138 0.0 0.0 0.00 0.00 0.00 68 1019.9
20210125050406 40 138 0.0 0.0 0.00 0.00 0.00 68 1019.9
20210125045408 40 138 0.0 0.0 0.00 0.00 0.00 73 1019.9
20210125044407 40 137 0.0 0.0 0.00 0.00 0.00 71 1019.9
20210125041406 39 138 0.0 0.0 0.00 0.00 0.00 71 1020.6
20210125034406 39 138 0.0 0.0 0.00 0.00 0.00 74 1020.6
20210125025406 39 137 0.0 0.0 0.00 0.00 0.00 69 1020.6
20210125022406 40 138 0.0 0.0 0.00 0.00 0.00 71 1020.9
20210125013408 39 138 0.0 0.0 0.00 0.00 0.00 68 1021.6
20210125010405 40 137 0.0 0.0 0.00 0.00 0.00 68 1022.0
20210125003408 41 138 0.0 0.0 0.00 0.00 0.00 62 1022.0
20210125001408 41 138 0.0 0.0 0.00 0.00 0.00 62 1022.0
20210124233406 42 138 0.0 0.0 0.00 0.00 0.00 56 1022.3
20210124231407 42 138 0.0 0.0 0.00 0.00 0.00 53 1022.0
20210124230407 43 137 0.0 0.0 0.00 0.00 0.00 50 1021.6
20210124225406 43 138 0.0 0.0 0.00 0.00 0.00 50 1022.0
20210124223412 43 137 0.0 0.0 0.00 0.00 0.00 47 1022.0
20210124222406 44 138 0.0 0.0 0.00 0.00 0.00 45 1022.3
20210124221409 44 137 0.0 0.0 0.00 0.00 0.00 42 1022.3
20210124220411 44 138 0.0 0.0 0.00 0.00 0.00 42 1022.3
20210124215406 45 137 0.0 0.0 0.00 0.00 0.00 41 1022.3
20210124212406 45 134 0.0 0.0 0.00 0.00 0.00 38 1022.6
20210124211406 45 134 0.0 0.0 0.00 0.00 0.00 38 1022.6
20210124210411 45 134 0.0 0.0 0.00 0.00 0.00 38 1022.6
20210124205405 45 134 0.0 0.0 0.00 0.00 0.00 38 1022.6
20210124204405 45 110 0.0 0.0 0.00 0.00 0.00 37 1023.0
20210124203406 45 178 0.0 0.0 0.00 0.00 0.00 38 1023.0
20210124202406 45 121 0.0 0.0 0.00 0.00 0.00 38 1022.6
20210124201406 44 335 0.0 0.0 0.00 0.00 0.00 39 1022.6
20210124200406 44 115 0.0 0.0 0.00 0.00 0.00 38 1023.0
20210124195405 44 170 0.0 0.0 0.00 0.00 0.00 38 1023.0
20210124193420 44 104 0.0 0.0 0.00 0.00 0.00 39 1023.3
20210124192406 44 234 0.0 0.0 0.00 0.00 0.00 39 1023.0
20210124191412 44 136 0.0 0.0 0.00 0.00 0.00 39 1023.0
20210124190408 43 146 0.0 0.0 0.00 0.00 0.00 40 1023.0
20210124185419 43 281 0.0 0.0 0.00 0.00 0.00 39 1023.3
20210124184407 43 192 0.0 0.0 0.00 0.00 0.00 40 1023.3
20210124182405 42 162 0.0 0.0 0.00 0.00 0.00 42 1024.0
20210124180405 42 144 0.0 0.0 0.00 0.00 0.00 40 1024.3
20210124174406 42 328 0.0 0.0 0.00 0.00 0.00 41 1024.7
20210124173406 42 156 0.0 0.0 0.00 0.00 0.00 40 1024.7
20210124170406 41 159 0.0 0.0 0.00 0.00 0.00 44 1026.0
20210124165408 40 173 0.0 0.0 0.00 0.00 0.00 43 1026.0
20210124164405 40 224 0.0 0.0 0.00 0.00 0.00 43 1026.0
20210124163408 39 219 0.0 0.0 0.00 0.00 0.00 45 1026.7
20210124161408 38 168 0.0 0.0 0.00 0.00 0.00 46 1027.0
20210124160405 37 89 0.0 0.0 0.00 0.00 0.00 47 1027.4
20210124155409 36 203 0.0 0.0 0.00 0.00 0.00 49 1027.0
20210124153408 35 151 0.0 0.0 0.00 0.00 0.00 51 1027.0
20210124152414 34 194 0.0 0.0 0.00 0.00 0.00 51 1026.7
20210124151409 34 73 0.0 0.0 0.00 0.00 0.00 52 1026.4
20210124150406 33 165 0.0 0.0 0.00 0.00 0.00 56 1026.4
20210124144409 31 166 0.0 0.0 0.00 0.00 0.00 61 1026.7
20210124143407 30 219 0.0 0.0 0.00 0.00 0.00 62 1026.7
20210124141406 28 194 0.0 0.0 0.00 0.00 0.00 71 1027.4
20210124140406 27 194 0.0 0.0 0.00 0.00 0.00 72 1027.4